DLH030 LOWW-LTFJ
Flight info
| Callsign | DLH030 |
|---|---|
| Flight time | 1h 51m |
| Altitude | 39000 |
| Route | LOWW/29 ADAM2C ADAMA Z648 VEDER DCT ALAMU DCT EPARI DCT TEGRI DCT TIMUR L606 ADORU UM19 IBODU IBOD1G LTFJ/OBIXI I06RY |
| Aircraft | B736/M-SDE2E3FGHIRWXY/LB1 |
Departure
| Time | 2026-04-21 19:23 |
|---|---|
| Airport | Vienna International Airport (LOWW) |
Arrival
| Time | 2026-04-21 21:14 |
|---|---|
| Airport | Istanbul Sabiha Gökçen International Airport (LTFJ) |
| Time | Latitude | Longitude | Altitude | Speed | Heading |
|---|---|---|---|---|---|
| 2026-04-21 18:51 | 48.11400 | 16.57259 | 624 ft | 0 kts | 203° |
| 2026-04-21 19:16 | 48.11397 | 16.57257 | 613 ft | 0 kts | 203° |
| 2026-04-21 19:16 | 48.11391 | 16.57253 | 613 ft | 1 kts | 204° |
| 2026-04-21 19:16 | 48.11377 | 16.57244 | 620 ft | 3 kts | 204° |
| 2026-04-21 19:16 | 48.11367 | 16.57237 | 614 ft | 0 kts | 206° |
| 2026-04-21 19:18 | 48.11365 | 16.57235 | 614 ft | 1 kts | 206° |
| 2026-04-21 19:18 | 48.11350 | 16.57224 | 622 ft | 4 kts | 202° |
| 2026-04-21 19:18 | 48.11340 | 16.57219 | 624 ft | 0 kts | 202° |
| 2026-04-21 19:19 | 48.11325 | 16.57222 | 615 ft | 5 kts | 156° |
| 2026-04-21 19:19 | 48.11303 | 16.57272 | 620 ft | 8 kts | 117° |
| 2026-04-21 19:20 | 48.11271 | 16.57368 | 616 ft | 13 kts | 116° |
| 2026-04-21 19:20 | 48.11220 | 16.57521 | 616 ft | 20 kts | 116° |
| 2026-04-21 19:20 | 48.11176 | 16.57605 | 613 ft | 10 kts | 161° |
| 2026-04-21 19:20 | 48.11155 | 16.57602 | 614 ft | 0 kts | 193° |
| 2026-04-21 19:21 | 48.11151 | 16.57601 | 614 ft | 2 kts | 194° |
| 2026-04-21 19:21 | 48.11130 | 16.57598 | 617 ft | 4 kts | 175° |
| 2026-04-21 19:21 | 48.11090 | 16.57628 | 615 ft | 11 kts | 144° |
| 2026-04-21 19:21 | 48.11014 | 16.57630 | 617 ft | 12 kts | 207° |
| 2026-04-21 19:22 | 48.10953 | 16.57555 | 630 ft | 12 kts | 244° |
| 2026-04-21 19:22 | 48.10950 | 16.57431 | 623 ft | 12 kts | 283° |
| 2026-04-21 19:22 | 48.11037 | 16.57161 | 621 ft | 67 kts | 295° |
| 2026-04-21 19:22 | 48.11407 | 16.56026 | 692 ft | 169 kts | 298° |
| 2026-04-21 19:23 | 48.12012 | 16.54199 | 1578 ft | 216 kts | 301° |
| 2026-04-21 19:23 | 48.12599 | 16.52019 | 2601 ft | 236 kts | 284° |
| 2026-04-21 19:23 | 48.12547 | 16.49482 | 3651 ft | 255 kts | 260° |
| 2026-04-21 19:23 | 48.11813 | 16.47003 | 4728 ft | 270 kts | 235° |
| 2026-04-21 19:24 | 48.10404 | 16.45115 | 5792 ft | 279 kts | 208° |
| 2026-04-21 19:24 | 48.08512 | 16.44376 | 6848 ft | 288 kts | 178° |
| 2026-04-21 19:24 | 48.06547 | 16.45009 | 7898 ft | 293 kts | 152° |
| 2026-04-21 19:24 | 48.05020 | 16.46966 | 8958 ft | 294 kts | 123° |
| 2026-04-21 19:25 | 48.03754 | 16.49415 | 10048 ft | 303 kts | 131° |
| 2026-04-21 19:25 | 48.02143 | 16.51566 | 10837 ft | 319 kts | 141° |
| 2026-04-21 19:25 | 48.00285 | 16.53501 | 11626 ft | 333 kts | 146° |
| 2026-04-21 19:25 | 47.98342 | 16.55474 | 12404 ft | 344 kts | 138° |
| 2026-04-21 19:26 | 47.96892 | 16.58347 | 13224 ft | 352 kts | 113° |
| 2026-04-21 19:26 | 47.96360 | 16.61904 | 14046 ft | 357 kts | 89° |
| 2026-04-21 19:26 | 47.96788 | 16.65547 | 14829 ft | 360 kts | 70° |
| 2026-04-21 19:26 | 47.97633 | 16.69090 | 15591 ft | 367 kts | 68° |
| 2026-04-21 19:27 | 47.98516 | 16.72714 | 16377 ft | 374 kts | 68° |
| 2026-04-21 19:27 | 47.99392 | 16.76412 | 17179 ft | 380 kts | 69° |
| 2026-04-21 19:27 | 47.99967 | 16.80300 | 17991 ft | 388 kts | 82° |
| 2026-04-21 19:27 | 48.00165 | 16.84340 | 18789 ft | 393 kts | 85° |
| 2026-04-21 19:28 | 48.00327 | 16.88439 | 19524 ft | 398 kts | 85° |
| 2026-04-21 19:28 | 48.00513 | 16.92582 | 20287 ft | 401 kts | 84° |
| 2026-04-21 19:28 | 48.00731 | 16.96747 | 21073 ft | 404 kts | 84° |
| 2026-04-21 19:28 | 48.00966 | 17.00942 | 21870 ft | 407 kts | 83° |
| 2026-04-21 19:29 | 48.01127 | 17.05170 | 22681 ft | 410 kts | 90° |
| 2026-04-21 19:29 | 48.00906 | 17.09427 | 23536 ft | 412 kts | 96° |
| 2026-04-21 19:29 | 48.00517 | 17.13681 | 24282 ft | 414 kts | 97° |
| 2026-04-21 19:29 | 48.00104 | 17.17967 | 24804 ft | 422 kts | 97° |
| 2026-04-21 19:30 | 47.99713 | 17.22354 | 25310 ft | 429 kts | 96° |
| 2026-04-21 19:30 | 47.99367 | 17.26657 | 25794 ft | 435 kts | 95° |
| 2026-04-21 19:30 | 47.99010 | 17.31291 | 26346 ft | 440 kts | 95° |
| 2026-04-21 19:30 | 47.98571 | 17.35780 | 26852 ft | 446 kts | 102° |
| 2026-04-21 19:31 | 47.97711 | 17.40252 | 27266 ft | 451 kts | 108° |
| 2026-04-21 19:31 | 47.96679 | 17.44733 | 27666 ft | 449 kts | 109° |
| 2026-04-21 19:31 | 47.95641 | 17.49075 | 28044 ft | 448 kts | 109° |
| 2026-04-21 19:31 | 47.94605 | 17.53456 | 28450 ft | 448 kts | 109° |
| 2026-04-21 19:32 | 47.93591 | 17.57854 | 28864 ft | 447 kts | 108° |
| 2026-04-21 19:32 | 47.92598 | 17.62256 | 29286 ft | 447 kts | 108° |
| 2026-04-21 19:32 | 47.91619 | 17.66652 | 29721 ft | 447 kts | 108° |
| 2026-04-21 19:32 | 47.90644 | 17.71052 | 30150 ft | 447 kts | 108° |
| 2026-04-21 19:33 | 47.89998 | 17.73964 | 30407 ft | 447 kts | 108° |
| 2026-04-21 19:33 | 47.88687 | 17.79860 | 30884 ft | 447 kts | 108° |
| 2026-04-21 19:33 | 47.87705 | 17.84262 | 31257 ft | 447 kts | 108° |
| 2026-04-21 19:33 | 47.86721 | 17.88658 | 31632 ft | 447 kts | 108° |
| 2026-04-21 19:34 | 47.85735 | 17.93053 | 32008 ft | 447 kts | 108° |
| 2026-04-21 19:34 | 47.84745 | 17.97445 | 32413 ft | 447 kts | 108° |
| 2026-04-21 19:34 | 47.83597 | 18.01746 | 32789 ft | 447 kts | 114° |
| 2026-04-21 19:34 | 47.82303 | 18.05899 | 33177 ft | 447 kts | 115° |
| 2026-04-21 19:35 | 47.80951 | 18.10067 | 33582 ft | 446 kts | 116° |
| 2026-04-21 19:35 | 47.78269 | 18.18419 | 34121 ft | 451 kts | 115° |
| 2026-04-21 19:36 | 47.75615 | 18.26888 | 34122 ft | 450 kts | 115° |
| 2026-04-21 19:36 | 47.73467 | 18.35512 | 34126 ft | 445 kts | 100° |
| 2026-04-21 19:37 | 47.72712 | 18.44658 | 34133 ft | 447 kts | 95° |
| 2026-04-21 19:37 | 47.72073 | 18.53872 | 34127 ft | 450 kts | 95° |
| 2026-04-21 19:38 | 47.71380 | 18.63067 | 34118 ft | 450 kts | 95° |
| 2026-04-21 19:38 | 47.70771 | 18.70788 | 34116 ft | 449 kts | 95° |
| 2026-04-21 19:39 | 47.69919 | 18.81472 | 34124 ft | 447 kts | 96° |
| 2026-04-21 19:39 | 47.69181 | 18.90641 | 34114 ft | 446 kts | 96° |
| 2026-04-21 19:39 | 47.68514 | 18.95123 | 34110 ft | 446 kts | 109° |
| 2026-04-21 19:40 | 47.67220 | 18.99303 | 34125 ft | 445 kts | 121° |
| 2026-04-21 19:40 | 47.65413 | 19.03018 | 34115 ft | 443 kts | 133° |
| 2026-04-21 19:40 | 47.63302 | 19.06340 | 34131 ft | 443 kts | 135° |
| 2026-04-21 19:41 | 47.58979 | 19.12879 | 34131 ft | 444 kts | 135° |
| 2026-04-21 19:41 | 47.54682 | 19.19391 | 34136 ft | 446 kts | 135° |
| 2026-04-21 19:42 | 47.50369 | 19.25998 | 34137 ft | 447 kts | 135° |
| 2026-04-21 19:42 | 47.46050 | 19.32637 | 34139 ft | 448 kts | 135° |
| 2026-04-21 19:43 | 47.41723 | 19.39283 | 34129 ft | 448 kts | 135° |
| 2026-04-21 19:43 | 47.37388 | 19.45921 | 34128 ft | 448 kts | 135° |
| 2026-04-21 19:44 | 47.33082 | 19.52496 | 34126 ft | 448 kts | 135° |
| 2026-04-21 19:44 | 47.28746 | 19.59099 | 34119 ft | 449 kts | 135° |
| 2026-04-21 19:45 | 47.24392 | 19.65714 | 34106 ft | 449 kts | 135° |
| 2026-04-21 19:45 | 47.20016 | 19.72344 | 34118 ft | 460 kts | 135° |
| 2026-04-21 19:45 | 47.17756 | 19.75760 | 34124 ft | 471 kts | 135° |
| 2026-04-21 19:46 | 47.15438 | 19.79258 | 34120 ft | 482 kts | 135° |
| 2026-04-21 19:46 | 47.10704 | 19.86393 | 34117 ft | 499 kts | 135° |
| 2026-04-21 19:47 | 47.05778 | 19.93801 | 34098 ft | 504 kts | 135° |
| 2026-04-21 19:47 | 47.00925 | 20.01081 | 34099 ft | 501 kts | 135° |
| 2026-04-21 19:48 | 46.96044 | 20.08379 | 34103 ft | 502 kts | 136° |
| 2026-04-21 19:48 | 46.91145 | 20.15681 | 34098 ft | 502 kts | 136° |
| 2026-04-21 19:49 | 46.86242 | 20.22970 | 34085 ft | 503 kts | 136° |
| 2026-04-21 19:49 | 46.81332 | 20.30250 | 34075 ft | 503 kts | 136° |
| 2026-04-21 19:50 | 46.77237 | 20.36306 | 34086 ft | 504 kts | 136° |
| 2026-04-21 19:50 | 46.71499 | 20.44767 | 34086 ft | 504 kts | 136° |
| 2026-04-21 19:51 | 46.66560 | 20.52029 | 34083 ft | 505 kts | 136° |
| 2026-04-21 19:51 | 46.61612 | 20.59284 | 34087 ft | 505 kts | 136° |
| 2026-04-21 19:52 | 46.56657 | 20.66531 | 34081 ft | 505 kts | 137° |
| 2026-04-21 19:52 | 46.52495 | 20.72601 | 34070 ft | 506 kts | 137° |
| 2026-04-21 19:53 | 46.47549 | 20.79796 | 34080 ft | 508 kts | 137° |
| 2026-04-21 19:53 | 46.42544 | 20.87059 | 34078 ft | 509 kts | 137° |
| 2026-04-21 19:54 | 46.37529 | 20.94316 | 34084 ft | 510 kts | 137° |
| 2026-04-21 19:54 | 46.32507 | 21.01566 | 34080 ft | 510 kts | 137° |
| 2026-04-21 19:55 | 46.27471 | 21.08815 | 34081 ft | 511 kts | 137° |
| 2026-04-21 19:55 | 46.22345 | 21.15895 | 34059 ft | 510 kts | 141° |
| 2026-04-21 19:56 | 46.17010 | 21.22678 | 34085 ft | 511 kts | 142° |
| 2026-04-21 19:56 | 46.11654 | 21.29434 | 34084 ft | 512 kts | 141° |
| 2026-04-21 19:57 | 46.06338 | 21.36213 | 34495 ft | 504 kts | 141° |
| 2026-04-21 19:57 | 46.03689 | 21.39604 | 34291 ft | 513 kts | 141° |
| 2026-04-21 19:57 | 46.01021 | 21.43019 | 34203 ft | 514 kts | 141° |
| 2026-04-21 19:58 | 45.95700 | 21.49828 | 34100 ft | 511 kts | 141° |
| 2026-04-21 19:58 | 45.90390 | 21.56599 | 34072 ft | 511 kts | 141° |
| 2026-04-21 19:59 | 45.85057 | 21.63376 | 34072 ft | 511 kts | 141° |
| 2026-04-21 19:59 | 45.79767 | 21.70080 | 34080 ft | 511 kts | 142° |
| 2026-04-21 20:00 | 45.74431 | 21.76825 | 34078 ft | 511 kts | 142° |
| 2026-04-21 20:00 | 45.69090 | 21.83560 | 34068 ft | 511 kts | 142° |
| 2026-04-21 20:01 | 45.63755 | 21.90267 | 34074 ft | 512 kts | 142° |
| 2026-04-21 20:01 | 45.58398 | 21.96983 | 34071 ft | 513 kts | 142° |
| 2026-04-21 20:02 | 45.53025 | 22.03703 | 34075 ft | 514 kts | 142° |
| 2026-04-21 20:02 | 45.47643 | 22.10417 | 34072 ft | 514 kts | 143° |
| 2026-04-21 20:03 | 45.42251 | 22.17126 | 34078 ft | 515 kts | 143° |
| 2026-04-21 20:03 | 45.36850 | 22.23829 | 34063 ft | 515 kts | 143° |
| 2026-04-21 20:04 | 45.31439 | 22.30523 | 34081 ft | 517 kts | 143° |
| 2026-04-21 20:04 | 45.25990 | 22.37248 | 34086 ft | 519 kts | 143° |
| 2026-04-21 20:05 | 45.20534 | 22.43966 | 34078 ft | 518 kts | 143° |
| 2026-04-21 20:05 | 45.15123 | 22.50612 | 34076 ft | 519 kts | 143° |
| 2026-04-21 20:06 | 45.09648 | 22.57315 | 34050 ft | 520 kts | 144° |
| 2026-04-21 20:06 | 45.04162 | 22.64017 | 34077 ft | 521 kts | 144° |
| 2026-04-21 20:07 | 44.98670 | 22.70709 | 34074 ft | 520 kts | 144° |
| 2026-04-21 20:07 | 44.93181 | 22.77379 | 34061 ft | 520 kts | 144° |
| 2026-04-21 20:08 | 44.87694 | 22.84028 | 34060 ft | 520 kts | 144° |
| 2026-04-21 20:08 | 44.82238 | 22.90622 | 34018 ft | 520 kts | 144° |
| 2026-04-21 20:09 | 44.76742 | 22.97247 | 34051 ft | 521 kts | 144° |
| 2026-04-21 20:09 | 44.71230 | 23.03873 | 34058 ft | 522 kts | 144° |
| 2026-04-21 20:10 | 44.65700 | 23.10506 | 34051 ft | 523 kts | 144° |
| 2026-04-21 20:10 | 44.60165 | 23.17126 | 34050 ft | 523 kts | 144° |
| 2026-04-21 20:11 | 44.54626 | 23.23737 | 34016 ft | 523 kts | 145° |
| 2026-04-21 20:11 | 44.49037 | 23.30383 | 34041 ft | 528 kts | 145° |
| 2026-04-21 20:12 | 44.43439 | 23.37029 | 34039 ft | 527 kts | 145° |
| 2026-04-21 20:12 | 44.37847 | 23.43653 | 34043 ft | 526 kts | 145° |
| 2026-04-21 20:13 | 44.32291 | 23.50213 | 34042 ft | 526 kts | 145° |
| 2026-04-21 20:13 | 44.26694 | 23.56804 | 34039 ft | 526 kts | 146° |
| 2026-04-21 20:14 | 44.21105 | 23.63370 | 34032 ft | 526 kts | 146° |
| 2026-04-21 20:14 | 44.15501 | 23.69935 | 34017 ft | 525 kts | 146° |
| 2026-04-21 20:15 | 44.09910 | 23.76469 | 34023 ft | 525 kts | 146° |
| 2026-04-21 20:15 | 44.04306 | 23.83002 | 34025 ft | 525 kts | 146° |
| 2026-04-21 20:16 | 43.98691 | 23.89530 | 34001 ft | 526 kts | 146° |
| 2026-04-21 20:16 | 43.93065 | 23.96053 | 34018 ft | 527 kts | 146° |
| 2026-04-21 20:17 | 43.87457 | 24.02542 | 34007 ft | 528 kts | 146° |
| 2026-04-21 20:17 | 43.81808 | 24.09061 | 34012 ft | 529 kts | 146° |
| 2026-04-21 20:18 | 43.77101 | 24.14482 | 34002 ft | 529 kts | 146° |
| 2026-04-21 20:18 | 43.70481 | 24.22086 | 33999 ft | 529 kts | 146° |
| 2026-04-21 20:19 | 43.64973 | 24.28897 | 34010 ft | 533 kts | 141° |
| 2026-04-21 20:19 | 43.59693 | 24.36025 | 33999 ft | 535 kts | 141° |
| 2026-04-21 20:20 | 43.54382 | 24.43211 | 33990 ft | 528 kts | 141° |
| 2026-04-21 20:20 | 43.49139 | 24.50194 | 33998 ft | 528 kts | 141° |
| 2026-04-21 20:21 | 43.43833 | 24.57198 | 33987 ft | 527 kts | 141° |
| 2026-04-21 20:21 | 43.38558 | 24.64150 | 33998 ft | 521 kts | 142° |
| 2026-04-21 20:22 | 43.33342 | 24.71012 | 34003 ft | 518 kts | 142° |
| 2026-04-21 20:22 | 43.25562 | 24.81211 | 34017 ft | 517 kts | 142° |
| 2026-04-21 20:23 | 43.20353 | 24.88020 | 34021 ft | 518 kts | 142° |
| 2026-04-21 20:23 | 43.15126 | 24.94839 | 33997 ft | 518 kts | 142° |
| 2026-04-21 20:24 | 43.09905 | 25.01633 | 34025 ft | 519 kts | 142° |
| 2026-04-21 20:24 | 43.04661 | 25.08447 | 34034 ft | 519 kts | 142° |
| 2026-04-21 20:25 | 42.99411 | 25.15258 | 34025 ft | 519 kts | 142° |
| 2026-04-21 20:25 | 42.94200 | 25.22002 | 34024 ft | 520 kts | 142° |
| 2026-04-21 20:26 | 42.88940 | 25.28793 | 33991 ft | 520 kts | 141° |
| 2026-04-21 20:26 | 42.83702 | 25.35539 | 34033 ft | 518 kts | 141° |
| 2026-04-21 20:27 | 42.78450 | 25.42283 | 34038 ft | 518 kts | 142° |
| 2026-04-21 20:27 | 42.73200 | 25.49010 | 34034 ft | 518 kts | 142° |
| 2026-04-21 20:28 | 42.67977 | 25.55685 | 34037 ft | 516 kts | 142° |
| 2026-04-21 20:28 | 42.62743 | 25.62361 | 34031 ft | 516 kts | 142° |
| 2026-04-21 20:29 | 42.57496 | 25.69035 | 34030 ft | 516 kts | 141° |
| 2026-04-21 20:29 | 42.52238 | 25.75708 | 34034 ft | 516 kts | 141° |
| 2026-04-21 20:30 | 42.47008 | 25.82330 | 34035 ft | 514 kts | 141° |
| 2026-04-21 20:30 | 42.41768 | 25.88947 | 34044 ft | 515 kts | 141° |
| 2026-04-21 20:31 | 42.36517 | 25.95563 | 34042 ft | 515 kts | 142° |
| 2026-04-21 20:31 | 42.31309 | 26.02112 | 34020 ft | 514 kts | 141° |
| 2026-04-21 20:32 | 42.26069 | 26.08684 | 34036 ft | 515 kts | 141° |
| 2026-04-21 20:32 | 42.20811 | 26.15249 | 34039 ft | 515 kts | 142° |
| 2026-04-21 20:33 | 42.15539 | 26.21800 | 34032 ft | 514 kts | 142° |
| 2026-04-21 20:33 | 42.10270 | 26.28338 | 34038 ft | 514 kts | 142° |
| 2026-04-21 20:34 | 42.05004 | 26.34858 | 34018 ft | 515 kts | 142° |
| 2026-04-21 20:34 | 41.99735 | 26.41369 | 34041 ft | 514 kts | 142° |
| 2026-04-21 20:35 | 41.94461 | 26.47871 | 34033 ft | 515 kts | 142° |
| 2026-04-21 20:35 | 41.89183 | 26.54364 | 34042 ft | 515 kts | 142° |
| 2026-04-21 20:36 | 41.84182 | 26.61295 | 34038 ft | 520 kts | 134° |
| 2026-04-21 20:36 | 41.79628 | 26.68821 | 34036 ft | 520 kts | 132° |
| 2026-04-21 20:37 | 41.75100 | 26.76319 | 34011 ft | 520 kts | 133° |
| 2026-04-21 20:37 | 41.70490 | 26.83775 | 34022 ft | 519 kts | 133° |
| 2026-04-21 20:38 | 41.65852 | 26.91198 | 33650 ft | 522 kts | 134° |
| 2026-04-21 20:38 | 41.63526 | 26.94917 | 33086 ft | 518 kts | 134° |
| 2026-04-21 20:38 | 41.62001 | 26.97358 | 32732 ft | 514 kts | 134° |
| 2026-04-21 20:39 | 41.59711 | 27.01020 | 32201 ft | 512 kts | 134° |
| 2026-04-21 20:39 | 41.56678 | 27.05860 | 31527 ft | 514 kts | 134° |
| 2026-04-21 20:39 | 41.54352 | 27.09495 | 31023 ft | 513 kts | 136° |
| 2026-04-21 20:39 | 41.51914 | 27.12970 | 30529 ft | 512 kts | 138° |
| 2026-04-21 20:40 | 41.50220 | 27.15266 | 30159 ft | 512 kts | 139° |
| 2026-04-21 20:40 | 41.47724 | 27.18585 | 29443 ft | 514 kts | 139° |
| 2026-04-21 20:40 | 41.45189 | 27.21950 | 28742 ft | 513 kts | 139° |
| 2026-04-21 20:40 | 41.42672 | 27.25320 | 28062 ft | 513 kts | 139° |
| 2026-04-21 20:41 | 41.40168 | 27.28705 | 27394 ft | 512 kts | 138° |
| 2026-04-21 20:41 | 41.37673 | 27.32098 | 26741 ft | 512 kts | 138° |
| 2026-04-21 20:41 | 41.35181 | 27.35494 | 26100 ft | 512 kts | 138° |
| 2026-04-21 20:41 | 41.32687 | 27.38891 | 25476 ft | 512 kts | 138° |
| 2026-04-21 20:42 | 41.30197 | 27.42276 | 24869 ft | 512 kts | 138° |
| 2026-04-21 20:42 | 41.27712 | 27.45647 | 24271 ft | 509 kts | 138° |
| 2026-04-21 20:42 | 41.25245 | 27.48991 | 23675 ft | 503 kts | 137° |
| 2026-04-21 20:42 | 41.23069 | 27.52608 | 22961 ft | 499 kts | 123° |
| 2026-04-21 20:43 | 41.21711 | 27.56814 | 22329 ft | 496 kts | 111° |
| 2026-04-21 20:43 | 41.20572 | 27.61074 | 21681 ft | 493 kts | 111° |
| 2026-04-21 20:43 | 41.19401 | 27.65330 | 21035 ft | 489 kts | 112° |
| 2026-04-21 20:43 | 41.18211 | 27.69531 | 20404 ft | 484 kts | 112° |
| 2026-04-21 20:44 | 41.17010 | 27.73689 | 19786 ft | 479 kts | 113° |
| 2026-04-21 20:44 | 41.15812 | 27.77791 | 19176 ft | 474 kts | 113° |
| 2026-04-21 20:44 | 41.14626 | 27.81850 | 18581 ft | 469 kts | 113° |
| 2026-04-21 20:44 | 41.13455 | 27.85859 | 17943 ft | 464 kts | 113° |
| 2026-04-21 20:45 | 41.12295 | 27.89827 | 17282 ft | 458 kts | 113° |
| 2026-04-21 20:45 | 41.11149 | 27.93746 | 16630 ft | 453 kts | 113° |
| 2026-04-21 20:45 | 41.10018 | 27.97606 | 16001 ft | 443 kts | 113° |
| 2026-04-21 20:45 | 41.08924 | 28.01330 | 15556 ft | 426 kts | 113° |
| 2026-04-21 20:46 | 41.07868 | 28.04928 | 15203 ft | 409 kts | 113° |
| 2026-04-21 20:46 | 41.06857 | 28.08370 | 15070 ft | 398 kts | 113° |
| 2026-04-21 20:46 | 41.05853 | 28.11772 | 15027 ft | 397 kts | 113° |
| 2026-04-21 20:46 | 41.04646 | 28.15049 | 14996 ft | 392 kts | 129° |
| 2026-04-21 20:47 | 41.02718 | 28.17517 | 15017 ft | 384 kts | 149° |
| 2026-04-21 20:47 | 41.00355 | 28.19101 | 14991 ft | 378 kts | 166° |
| 2026-04-21 20:47 | 40.97846 | 28.19872 | 15017 ft | 375 kts | 173° |
| 2026-04-21 20:47 | 40.95268 | 28.20509 | 14978 ft | 376 kts | 174° |
| 2026-04-21 20:48 | 40.92689 | 28.21130 | 14598 ft | 374 kts | 173° |
| 2026-04-21 20:48 | 40.90153 | 28.21756 | 14242 ft | 370 kts | 173° |
| 2026-04-21 20:48 | 40.87624 | 28.22396 | 13884 ft | 368 kts | 173° |
| 2026-04-21 20:48 | 40.85116 | 28.23043 | 13487 ft | 367 kts | 173° |
| 2026-04-21 20:49 | 40.82612 | 28.23694 | 13093 ft | 365 kts | 172° |
| 2026-04-21 20:49 | 40.80124 | 28.24342 | 12692 ft | 364 kts | 173° |
| 2026-04-21 20:49 | 40.77689 | 28.25096 | 12289 ft | 367 kts | 164° |
| 2026-04-21 20:49 | 40.75385 | 28.26580 | 11920 ft | 369 kts | 154° |
| 2026-04-21 20:50 | 40.73138 | 28.28213 | 11543 ft | 367 kts | 155° |
| 2026-04-21 20:50 | 40.70997 | 28.29752 | 11187 ft | 366 kts | 152° |
| 2026-04-21 20:50 | 40.69096 | 28.32013 | 10780 ft | 373 kts | 128° |
| 2026-04-21 20:50 | 40.67954 | 28.35164 | 10829 ft | 370 kts | 108° |
| 2026-04-21 20:51 | 40.67623 | 28.38421 | 10843 ft | 374 kts | 92° |
| 2026-04-21 20:51 | 40.67582 | 28.41934 | 10851 ft | 398 kts | 91° |
| 2026-04-21 20:51 | 40.67544 | 28.45693 | 10842 ft | 418 kts | 91° |
| 2026-04-21 20:51 | 40.67483 | 28.49553 | 10828 ft | 422 kts | 92° |
| 2026-04-21 20:52 | 40.67402 | 28.53399 | 10817 ft | 420 kts | 92° |
| 2026-04-21 20:52 | 40.67331 | 28.56474 | 10821 ft | 421 kts | 92° |
| 2026-04-21 20:52 | 40.66995 | 28.60289 | 10810 ft | 419 kts | 107° |
| 2026-04-21 20:52 | 40.65763 | 28.63739 | 10849 ft | 415 kts | 122° |
| 2026-04-21 20:53 | 40.64621 | 28.67236 | 10386 ft | 419 kts | 103° |
| 2026-04-21 20:53 | 40.64559 | 28.70999 | 10021 ft | 408 kts | 79° |
| 2026-04-21 20:53 | 40.65560 | 28.74426 | 9500 ft | 399 kts | 55° |
| 2026-04-21 20:53 | 40.67373 | 28.77122 | 9007 ft | 391 kts | 41° |
| 2026-04-21 20:54 | 40.69228 | 28.79698 | 8484 ft | 384 kts | 48° |
| 2026-04-21 20:54 | 40.70796 | 28.82463 | 8022 ft | 371 kts | 54° |
| 2026-04-21 20:54 | 40.72097 | 28.85352 | 7540 ft | 361 kts | 61° |
| 2026-04-21 20:54 | 40.73180 | 28.88300 | 7080 ft | 352 kts | 64° |
| 2026-04-21 20:55 | 40.74193 | 28.91204 | 6626 ft | 345 kts | 63° |
| 2026-04-21 20:55 | 40.75203 | 28.94033 | 6167 ft | 338 kts | 63° |
| 2026-04-21 20:55 | 40.76197 | 28.96761 | 5717 ft | 331 kts | 63° |
| 2026-04-21 20:55 | 40.77198 | 28.99497 | 5290 ft | 324 kts | 63° |
| 2026-04-21 20:56 | 40.78164 | 29.02136 | 4876 ft | 317 kts | 62° |
| 2026-04-21 20:56 | 40.79117 | 29.04734 | 4451 ft | 311 kts | 63° |
| 2026-04-21 20:56 | 40.80036 | 29.07238 | 4025 ft | 304 kts | 63° |
| 2026-04-21 20:56 | 40.80939 | 29.09700 | 3649 ft | 290 kts | 63° |
| 2026-04-21 20:57 | 40.81774 | 29.11995 | 3281 ft | 264 kts | 64° |
| 2026-04-21 20:57 | 40.82535 | 29.14072 | 2938 ft | 240 kts | 64° |
| 2026-04-21 20:57 | 40.83225 | 29.15953 | 2630 ft | 214 kts | 64° |
| 2026-04-21 20:57 | 40.83827 | 29.17591 | 2386 ft | 179 kts | 64° |
| 2026-04-21 20:58 | 40.84308 | 29.18902 | 2158 ft | 142 kts | 63° |
| 2026-04-21 20:58 | 40.84701 | 29.19972 | 1978 ft | 123 kts | 64° |
| 2026-04-21 20:58 | 40.85067 | 29.20968 | 1835 ft | 122 kts | 64° |
| 2026-04-21 20:58 | 40.85432 | 29.21960 | 1699 ft | 119 kts | 64° |
| 2026-04-21 20:59 | 40.85796 | 29.22951 | 1522 ft | 120 kts | 64° |
| 2026-04-21 20:59 | 40.86159 | 29.23940 | 1358 ft | 120 kts | 63° |
| 2026-04-21 20:59 | 40.86517 | 29.24912 | 1206 ft | 117 kts | 63° |
| 2026-04-21 20:59 | 40.86881 | 29.25903 | 1059 ft | 121 kts | 63° |
| 2026-04-21 21:00 | 40.87257 | 29.26924 | 882 ft | 124 kts | 63° |
| 2026-04-21 21:00 | 40.87613 | 29.27911 | 747 ft | 114 kts | 63° |
| 2026-04-21 21:00 | 40.87945 | 29.28851 | 585 ft | 116 kts | 61° |
| 2026-04-21 21:00 | 40.88294 | 29.29802 | 435 ft | 114 kts | 59° |
| 2026-04-21 21:01 | 40.88686 | 29.30761 | 468 ft | 133 kts | 58° |
| 2026-04-21 21:01 | 40.89190 | 29.31955 | 1081 ft | 165 kts | 59° |
| 2026-04-21 21:01 | 40.89848 | 29.33516 | 1474 ft | 218 kts | 61° |
| 2026-04-21 21:01 | 40.90508 | 29.35317 | 2596 ft | 223 kts | 71° |
| 2026-04-21 21:02 | 40.90739 | 29.37535 | 2948 ft | 260 kts | 93° |
| 2026-04-21 21:02 | 40.90331 | 29.39856 | 3971 ft | 265 kts | 114° |
| 2026-04-21 21:02 | 40.89287 | 29.42010 | 4487 ft | 297 kts | 134° |
| 2026-04-21 21:02 | 40.87539 | 29.43651 | 4906 ft | 321 kts | 160° |
| 2026-04-21 21:03 | 40.85346 | 29.44275 | 6054 ft | 324 kts | 183° |
| 2026-04-21 21:03 | 40.83151 | 29.44045 | 7192 ft | 298 kts | 192° |
| 2026-04-21 21:03 | 40.81287 | 29.43442 | 8217 ft | 257 kts | 203° |
| 2026-04-21 21:03 | 40.79712 | 29.42746 | 9261 ft | 221 kts | 205° |
| 2026-04-21 21:04 | 40.78379 | 29.42166 | 10249 ft | 181 kts | 210° |
| 2026-04-21 21:04 | 40.77329 | 29.41408 | 10547 ft | 182 kts | 218° |
| 2026-04-21 21:04 | 40.76176 | 29.40435 | 10538 ft | 210 kts | 219° |
| 2026-04-21 21:04 | 40.74889 | 29.39298 | 10518 ft | 235 kts | 221° |
| 2026-04-21 21:05 | 40.73748 | 29.37658 | 10447 ft | 254 kts | 239° |
| 2026-04-21 21:05 | 40.72775 | 29.35612 | 10436 ft | 271 kts | 242° |
| 2026-04-21 21:05 | 40.71795 | 29.33457 | 10429 ft | 276 kts | 242° |
| 2026-04-21 21:05 | 40.70810 | 29.31277 | 10421 ft | 279 kts | 242° |
| 2026-04-21 21:06 | 40.69817 | 29.29065 | 10400 ft | 282 kts | 242° |
| 2026-04-21 21:06 | 40.68798 | 29.26780 | 9977 ft | 294 kts | 242° |
| 2026-04-21 21:06 | 40.67777 | 29.24486 | 9485 ft | 283 kts | 243° |
| 2026-04-21 21:06 | 40.67185 | 29.22168 | 8954 ft | 264 kts | 265° |
| 2026-04-21 21:07 | 40.67485 | 29.19844 | 8447 ft | 250 kts | 291° |
| 2026-04-21 21:07 | 40.68301 | 29.17914 | 7954 ft | 239 kts | 298° |
| 2026-04-21 21:07 | 40.69329 | 29.16267 | 7413 ft | 231 kts | 319° |
| 2026-04-21 21:07 | 40.70772 | 29.15402 | 6937 ft | 225 kts | 335° |
| 2026-04-21 21:08 | 40.72240 | 29.14791 | 6442 ft | 217 kts | 336° |
| 2026-04-21 21:08 | 40.73709 | 29.14358 | 5817 ft | 218 kts | 344° |
| 2026-04-21 21:08 | 40.75195 | 29.14019 | 5134 ft | 213 kts | 345° |
| 2026-04-21 21:08 | 40.76579 | 29.13689 | 4616 ft | 187 kts | 345° |
| 2026-04-21 21:09 | 40.77768 | 29.13394 | 4115 ft | 164 kts | 346° |
| 2026-04-21 21:09 | 40.78813 | 29.13157 | 3931 ft | 145 kts | 347° |
| 2026-04-21 21:09 | 40.79758 | 29.12927 | 3784 ft | 130 kts | 345° |
| 2026-04-21 21:09 | 40.80619 | 29.12686 | 3727 ft | 127 kts | 345° |
| 2026-04-21 21:10 | 40.81494 | 29.12531 | 3652 ft | 128 kts | 7° |
| 2026-04-21 21:10 | 40.82255 | 29.13112 | 3564 ft | 129 kts | 34° |
| 2026-04-21 21:10 | 40.83010 | 29.13777 | 3356 ft | 128 kts | 32° |
| 2026-04-21 21:10 | 40.83728 | 29.14560 | 3188 ft | 144 kts | 54° |
| 2026-04-21 21:11 | 40.84186 | 29.15706 | 2970 ft | 141 kts | 62° |
| 2026-04-21 21:11 | 40.84645 | 29.16849 | 2742 ft | 139 kts | 62° |
| 2026-04-21 21:11 | 40.85075 | 29.17966 | 2531 ft | 133 kts | 64° |
| 2026-04-21 21:11 | 40.85480 | 29.19038 | 2332 ft | 126 kts | 62° |
| 2026-04-21 21:12 | 40.85863 | 29.20069 | 2138 ft | 123 kts | 64° |
| 2026-04-21 21:12 | 40.86227 | 29.21061 | 1937 ft | 118 kts | 64° |
| 2026-04-21 21:12 | 40.86591 | 29.22050 | 1781 ft | 123 kts | 65° |
| 2026-04-21 21:12 | 40.86966 | 29.23076 | 1564 ft | 126 kts | 64° |
| 2026-04-21 21:13 | 40.87356 | 29.24135 | 1393 ft | 128 kts | 63° |
| 2026-04-21 21:13 | 40.87743 | 29.25185 | 1180 ft | 127 kts | 64° |
| 2026-04-21 21:13 | 40.88124 | 29.26243 | 928 ft | 126 kts | 62° |
| 2026-04-21 21:13 | 40.88504 | 29.27275 | 719 ft | 123 kts | 62° |
| 2026-04-21 21:14 | 40.88883 | 29.28287 | 512 ft | 122 kts | 59° |
| 2026-04-21 21:14 | 40.89246 | 29.29266 | 364 ft | 114 kts | 60° |
| 2026-04-21 21:14 | 40.89573 | 29.30133 | 316 ft | 93 kts | 62° |
| 2026-04-21 21:14 | 40.89773 | 29.30675 | 318 ft | 35 kts | 65° |
| 2026-04-21 21:15 | 40.89825 | 29.30839 | 317 ft | 17 kts | 66° |
| 2026-04-21 21:15 | 40.89870 | 29.30965 | 316 ft | 14 kts | 62° |
| 2026-04-21 21:15 | 40.89873 | 29.31082 | 315 ft | 13 kts | 126° |
| 2026-04-21 21:15 | 40.89846 | 29.31109 | 315 ft | 0 kts | 155° |
| 2026-04-21 21:16 | 40.89836 | 29.31115 | 315 ft | 8 kts | 155° |
| 2026-04-21 21:16 | 40.89788 | 29.31139 | 316 ft | 1 kts | 182° |
| 2026-04-21 21:16 | 40.89758 | 29.31133 | 316 ft | 10 kts | 199° |
| 2026-04-21 21:17 | 40.89679 | 29.31167 | 316 ft | 13 kts | 148° |
| 2026-04-21 21:17 | 40.89646 | 29.31127 | 315 ft | 12 kts | 314° |
| 2026-04-21 21:17 | 40.89717 | 29.31081 | 316 ft | 11 kts | 326° |
| 2026-04-21 21:17 | 40.89719 | 29.31005 | 315 ft | 10 kts | 241° |
| 2026-04-21 21:18 | 40.89690 | 29.30923 | 315 ft | 10 kts | 245° |
| 2026-04-21 21:18 | 40.89635 | 29.30893 | 315 ft | 8 kts | 163° |
| 2026-04-21 21:18 | 40.89605 | 29.30912 | 316 ft | 2 kts | 152° |
| 2026-04-21 21:18 | 40.89603 | 29.30913 | 316 ft | 0 kts | 152° |